createdAt,value
2024-04-09T00:03:17.981Z,21.63
2024-04-09T00:08:20.028Z,8.07
2024-04-09T00:13:22.115Z,8.67
2024-04-09T00:18:26.016Z,7.60
2024-04-09T00:23:29.943Z,12.73
2024-04-09T00:28:32.277Z,16.20
2024-04-09T00:33:34.665Z,12.30
2024-04-09T00:38:36.644Z,9.77
2024-04-09T00:43:38.747Z,11.07
2024-04-09T00:48:43.070Z,8.20
2024-04-09T00:53:48.596Z,5.60
2024-04-09T00:58:50.501Z,6.10
2024-04-09T01:03:52.525Z,12.00
2024-04-09T01:08:54.518Z,7.23
2024-04-09T01:13:56.703Z,9.40
2024-04-09T01:18:58.658Z,6.47
2024-04-09T01:24:00.674Z,3.60
2024-04-09T01:29:02.560Z,16.20
2024-04-09T01:34:05.787Z,5.77
2024-04-09T01:39:09.938Z,3.67
2024-04-09T01:44:12.100Z,4.90
2024-04-09T01:49:13.936Z,10.93
2024-04-09T01:54:15.956Z,5.50
2024-04-09T01:59:17.923Z,8.53
2024-04-09T02:04:20.054Z,11.50
2024-04-09T02:09:23.520Z,15.23
2024-04-09T02:14:27.512Z,7.83
2024-04-09T02:19:30.659Z,5.90
2024-04-09T02:24:32.686Z,8.43
2024-04-09T02:29:34.649Z,7.30
2024-04-09T02:34:37.358Z,2.77
2024-04-09T02:39:39.308Z,10.63
2024-04-09T02:44:41.427Z,7.73
2024-04-09T02:49:45.561Z,4.33
2024-04-09T02:54:48.217Z,4.23
2024-04-09T02:59:56.205Z,6.80
2024-04-09T03:04:58.123Z,7.93
2024-04-09T03:10:00.653Z,8.77
2024-04-09T03:15:02.737Z,5.90
2024-04-09T03:20:06.055Z,6.23
2024-04-09T03:25:08.201Z,7.03
2024-04-09T03:30:10.647Z,6.47
2024-04-09T03:35:12.643Z,5.63
2024-04-09T03:40:15.200Z,10.90
2024-04-09T03:45:17.397Z,6.33
2024-04-09T03:50:19.417Z,4.40
2024-04-09T03:55:21.618Z,5.67
2024-04-09T04:00:23.598Z,12.27
2024-04-09T04:05:26.415Z,5.47
2024-04-09T04:10:28.259Z,5.63
2024-04-09T04:15:30.249Z,7.50
2024-04-09T04:20:32.111Z,8.27
2024-04-09T04:25:34.004Z,6.40
2024-04-09T04:30:36.168Z,7.50
2024-04-09T04:35:38.148Z,14.97
2024-04-09T04:40:40.570Z,12.23
2024-04-09T04:45:43.700Z,14.77
2024-04-09T04:50:49.262Z,3.87
2024-04-09T04:55:51.846Z,5.67
2024-04-09T05:00:54.334Z,16.07
2024-04-09T05:05:56.672Z,7.57
2024-04-09T05:10:58.912Z,8.13
2024-04-09T05:16:01.058Z,12.83
2024-04-09T05:21:03.686Z,9.17
2024-04-09T05:26:05.671Z,7.20
2024-04-09T05:31:07.762Z,12.83
2024-04-09T05:36:09.816Z,12.03
2024-04-09T05:41:12.913Z,10.23
2024-04-09T05:46:15.048Z,5.40
2024-04-09T05:51:17.108Z,9.23
2024-04-09T05:56:19.207Z,10.43
2024-04-09T06:01:21.382Z,7.60
2024-04-09T06:06:23.724Z,5.80
2024-04-09T06:11:25.789Z,7.50
2024-04-09T06:16:27.794Z,7.90
2024-04-09T06:21:29.788Z,3.00
2024-04-09T06:26:31.841Z,4.37
2024-04-09T06:31:33.940Z,2.93
2024-04-09T06:36:36.082Z,2.70
2024-04-09T06:41:38.450Z,3.50
2024-04-09T06:46:40.393Z,3.80
2024-04-09T06:51:42.619Z,3.23
2024-04-09T06:56:44.707Z,5.47
2024-04-09T07:01:46.895Z,9.10
2024-04-09T07:06:51.195Z,1.10
2024-04-09T07:11:53.430Z,8.60
2024-04-09T07:16:55.398Z,1.37
2024-04-09T07:21:57.440Z,4.83
2024-04-09T07:26:59.494Z,3.97
2024-04-09T07:32:02.378Z,8.97
2024-04-09T07:37:04.596Z,5.90
2024-04-09T07:42:08.075Z,9.50
2024-04-09T07:47:12.261Z,3.53
2024-04-09T07:52:14.509Z,2.60
2024-04-09T07:57:16.430Z,3.13
2024-04-09T08:02:18.359Z,3.90
2024-04-09T08:07:20.396Z,2.90
2024-04-09T08:12:22.731Z,0.50
2024-04-09T08:17:25.025Z,2.00
2024-04-09T08:22:27.009Z,2.60
2024-04-09T08:27:30.178Z,2.70
2024-04-09T08:32:33.587Z,1.07
2024-04-09T08:37:35.714Z,1.80
2024-04-09T08:42:41.736Z,1.77
2024-04-09T08:47:49.849Z,1.63
2024-04-09T08:52:54.370Z,0.50
2024-04-09T08:57:56.378Z,1.47
2024-04-09T09:02:58.373Z,1.80
2024-04-09T09:08:05.745Z,4.97
2024-04-09T09:13:09.932Z,0.50
2024-04-09T09:18:39.891Z,1.37
2024-04-09T09:23:41.999Z,3.27
2024-04-09T09:28:44.253Z,4.73
2024-04-09T09:33:49.998Z,0.50
2024-04-09T09:38:54.449Z,0.40
2024-04-09T09:43:58.841Z,2.77
2024-04-09T09:49:04.922Z,2.93
2024-04-09T09:54:07.596Z,0.60
2024-04-09T09:59:11.857Z,0.50
2024-04-09T10:04:17.451Z,2.13
2024-04-09T10:09:19.747Z,1.27
2024-04-09T10:14:25.039Z,1.23
2024-04-09T10:19:36.662Z,1.93
2024-04-09T10:24:40.384Z,0.73
2024-04-09T10:29:52.183Z,0.93
2024-04-09T10:34:55.796Z,0.47
2024-04-09T10:39:58.030Z,1.13
2024-04-09T10:45:00.221Z,0.60
2024-04-09T10:50:04.663Z,0.50
2024-04-09T10:55:15.724Z,1.63
2024-04-09T11:00:18.026Z,1.33
2024-04-09T11:05:20.066Z,0.40
2024-04-09T11:10:22.344Z,9.30
2024-04-09T11:15:24.511Z,0.50
2024-04-09T11:20:26.807Z,1.00
2024-04-09T11:25:28.861Z,0.40
2024-04-09T11:30:35.523Z,0.50
2024-04-09T11:35:37.951Z,0.40
2024-04-09T11:40:40.063Z,0.50
2024-04-09T11:45:42.615Z,0.60
2024-04-09T11:50:44.816Z,2.50
2024-04-09T11:55:47.005Z,0.53
2024-04-09T12:00:49.251Z,0.43
2024-04-09T12:05:51.327Z,0.70
2024-04-09T12:10:54.126Z,0.50
2024-04-09T12:15:56.187Z,1.63
2024-04-09T12:20:58.399Z,0.57
2024-04-09T12:26:00.358Z,0.40
2024-04-09T12:31:02.548Z,0.50
2024-04-09T12:36:05.439Z,0.50
2024-04-09T12:41:07.535Z,0.97
2024-04-09T12:46:11.374Z,0.80
2024-04-09T12:51:13.464Z,0.60
2024-04-09T12:56:15.448Z,0.40
2024-04-09T13:01:17.740Z,0.50
2024-04-09T13:06:20.059Z,0.40
2024-04-09T13:11:22.574Z,0.40
2024-04-09T13:21:29.975Z,0.50
2024-04-09T13:26:31.977Z,0.60
2024-04-09T13:31:34.384Z,0.50
2024-04-09T13:36:36.361Z,2.20
2024-04-09T13:41:38.289Z,7.50
2024-04-09T13:46:40.404Z,2.50
2024-04-09T13:51:42.475Z,1.27
2024-04-09T13:56:45.046Z,0.50
2024-04-09T14:01:47.338Z,4.50
2024-04-09T14:06:49.756Z,0.53
2024-04-09T14:11:51.968Z,0.90
2024-04-09T14:16:54.721Z,1.33
2024-04-09T14:21:57.165Z,3.23
2024-04-09T14:26:59.135Z,1.57
2024-04-09T14:32:01.136Z,0.60
2024-04-09T14:37:03.609Z,0.40
2024-04-09T14:42:05.962Z,0.63
2024-04-09T14:47:10.774Z,0.80
2024-04-09T14:52:12.944Z,4.20
2024-04-09T14:57:14.854Z,1.00
2024-04-09T15:02:17.857Z,1.90
2024-04-09T15:07:20.182Z,0.50
2024-04-09T15:12:24.485Z,0.50
2024-04-09T15:17:26.787Z,0.67
2024-04-09T15:22:28.840Z,0.60
2024-04-09T15:27:32.772Z,5.13
2024-04-09T15:32:35.975Z,0.77
2024-04-09T15:37:39.010Z,0.40
2024-04-09T15:42:41.349Z,0.60
2024-04-09T15:47:43.492Z,2.43
2024-04-09T15:52:48.188Z,0.77
2024-04-09T15:57:50.308Z,0.50
2024-04-09T16:02:52.488Z,0.50
2024-04-09T16:07:54.574Z,0.63
2024-04-09T16:12:56.982Z,0.67
2024-04-09T16:18:00.150Z,0.50
2024-04-09T16:23:02.563Z,0.63
2024-04-09T16:28:06.816Z,0.50
2024-04-09T16:33:08.967Z,0.47
2024-04-09T16:38:12.162Z,2.00
2024-04-09T16:43:14.458Z,0.70
2024-04-09T16:48:16.750Z,1.00
2024-04-09T16:53:19.048Z,1.27
2024-04-09T16:58:21.150Z,0.60
2024-04-09T17:03:24.174Z,0.80
2024-04-09T17:08:29.083Z,0.60
2024-04-09T17:13:32.711Z,2.00
2024-04-09T17:18:34.859Z,0.70
2024-04-09T17:23:39.048Z,0.40
2024-04-09T17:28:41.002Z,1.57
2024-04-09T17:33:43.593Z,0.80
2024-04-09T17:38:45.753Z,0.50
2024-04-09T17:43:48.277Z,0.90
2024-04-09T17:48:50.444Z,1.53
2024-04-09T17:53:52.353Z,1.37
2024-04-09T17:58:54.422Z,2.07
2024-04-09T18:03:57.400Z,1.10
2024-04-09T18:08:59.512Z,1.87
2024-04-09T18:14:02.083Z,1.33
2024-04-09T18:19:04.451Z,0.87
2024-04-09T18:24:06.525Z,1.00
2024-04-09T18:29:11.952Z,0.80
2024-04-09T18:34:16.670Z,3.90
2024-04-09T18:39:18.973Z,2.30
2024-04-09T18:44:22.828Z,0.60
2024-04-09T18:49:24.852Z,2.07
2024-04-09T18:54:26.724Z,1.07
2024-04-09T18:59:30.705Z,1.33
2024-04-09T19:04:33.309Z,2.27
2024-04-09T19:09:37.713Z,1.33
2024-04-09T19:14:41.276Z,1.20
2024-04-09T19:19:43.259Z,5.40
2024-04-09T19:24:45.205Z,2.97
2024-04-09T19:29:47.083Z,0.80
2024-04-09T19:34:49.571Z,1.20
2024-04-09T19:39:51.500Z,0.73
2024-04-09T19:44:53.942Z,1.63
2024-04-09T19:49:55.924Z,0.60
2024-04-09T19:54:57.840Z,1.43
2024-04-09T20:00:01.819Z,1.03
2024-04-09T20:05:04.714Z,1.73
2024-04-09T20:10:08.177Z,0.83
2024-04-09T20:15:10.106Z,2.37
2024-04-09T20:20:11.994Z,1.97
2024-04-09T20:25:14.027Z,0.67
2024-04-09T20:30:16.249Z,0.70
2024-04-09T20:35:28.471Z,1.57
2024-04-09T20:40:38.421Z,1.47
2024-04-09T20:45:40.375Z,0.80
2024-04-09T20:50:42.831Z,1.63
2024-04-09T20:55:44.870Z,0.97
2024-04-09T21:00:48.489Z,1.80
2024-04-09T21:05:50.395Z,0.77
2024-04-09T21:10:52.444Z,2.50
2024-04-09T21:15:54.591Z,1.00
2024-04-09T21:20:56.575Z,1.67
2024-04-09T21:25:58.453Z,5.50
2024-04-09T21:31:01.073Z,0.67
2024-04-09T21:36:03.032Z,0.97
2024-04-09T21:41:08.272Z,0.77
2024-04-09T21:46:10.194Z,1.13
2024-04-09T21:51:12.075Z,1.77
2024-04-09T21:56:14.054Z,0.60
2024-04-09T22:01:16.032Z,1.60
2024-04-09T22:06:18.055Z,0.63
2024-04-09T22:11:20.138Z,4.13
2024-04-09T22:16:22.213Z,1.57
2024-04-09T22:21:24.728Z,1.37
2024-04-09T22:26:27.125Z,3.70
2024-04-09T22:31:29.171Z,2.73
2024-04-09T22:36:31.230Z,1.87
2024-04-09T22:41:33.437Z,2.70
2024-04-09T22:46:35.533Z,3.03
2024-04-09T22:51:37.862Z,1.30
2024-04-09T22:56:39.726Z,2.00
2024-04-09T23:01:41.716Z,4.00
2024-04-09T23:06:44.047Z,4.13
2024-04-09T23:11:46.430Z,2.90
2024-04-09T23:16:49.585Z,1.80
2024-04-09T23:21:51.751Z,1.50
2024-04-09T23:26:53.622Z,3.07
2024-04-09T23:31:55.492Z,2.33
2024-04-09T23:36:57.424Z,1.20
2024-04-09T23:42:05.755Z,1.50
2024-04-09T23:47:08.313Z,2.40
2024-04-09T23:52:10.207Z,1.97
2024-04-09T23:57:12.157Z,1.30
